createdAt,value
2023-01-11T00:01:30.815Z,0.03
2023-01-11T00:03:58.976Z,0.20
2023-01-11T00:06:25.812Z,0.10
2023-01-11T00:08:55.785Z,0.10
2023-01-11T00:11:23.213Z,0.20
2023-01-11T00:13:51.691Z,0.10
2023-01-11T00:16:19.814Z,0.00
2023-01-11T00:18:46.643Z,0.10
2023-01-11T00:21:14.511Z,0.03
2023-01-11T00:23:41.283Z,0.40
2023-01-11T00:26:13.175Z,0.10
2023-01-11T00:28:41.684Z,0.00
2023-01-11T00:31:09.234Z,0.10
2023-01-11T00:33:36.062Z,0.10
2023-01-11T00:36:03.090Z,0.10
2023-01-11T00:38:31.931Z,0.10
2023-01-11T00:40:58.752Z,0.10
2023-01-11T00:43:25.495Z,0.10
2023-01-11T00:45:52.308Z,0.10
2023-01-11T00:48:19.415Z,0.30
2023-01-11T00:50:47.265Z,0.10
2023-01-11T00:53:14.052Z,0.20
2023-01-11T00:55:43.807Z,0.17
2023-01-11T00:58:11.159Z,0.20
2023-01-11T01:00:38.451Z,0.30
2023-01-11T01:03:06.320Z,0.30
2023-01-11T01:05:33.053Z,0.10
2023-01-11T01:08:01.103Z,0.30
2023-01-11T01:10:31.758Z,0.22
2023-01-11T01:13:00.112Z,0.40
2023-01-11T01:15:26.944Z,0.23
2023-01-11T01:17:55.241Z,0.40
2023-01-11T01:20:23.654Z,0.40
2023-01-11T01:22:50.589Z,0.15
2023-01-11T01:25:18.637Z,0.22
2023-01-11T01:27:45.386Z,0.30
2023-01-11T01:30:14.358Z,0.30
2023-01-11T01:32:41.184Z,0.10
2023-01-11T01:35:09.611Z,0.20
2023-01-11T01:37:37.681Z,0.10
2023-01-11T01:40:05.261Z,0.40
2023-01-11T01:42:32.107Z,0.22
2023-01-11T01:45:25.670Z,0.10
2023-01-11T01:48:00.473Z,0.45
2023-01-11T01:50:37.888Z,0.10
2023-01-11T01:53:14.365Z,0.10
2023-01-11T01:59:10.438Z,0.10
2023-01-11T02:01:39.415Z,0.20
2023-01-11T02:04:11.848Z,0.10
2023-01-11T02:06:41.639Z,0.13
2023-01-11T02:09:23.763Z,0.10
2023-01-11T02:11:53.949Z,0.30
2023-01-11T02:14:21.628Z,0.38
2023-01-11T02:16:51.736Z,0.20
2023-01-11T02:19:35.664Z,0.20
2023-01-11T02:22:25.811Z,0.20
2023-01-11T02:25:10.976Z,0.47
2023-01-11T02:28:02.786Z,0.15
2023-01-11T02:30:57.689Z,0.30
2023-01-11T02:33:54.852Z,0.30
2023-01-11T02:36:41.237Z,0.20
2023-01-11T02:39:45.781Z,0.40
2023-01-11T02:42:37.363Z,0.68
2023-01-11T02:45:16.794Z,0.30
2023-01-11T02:48:22.352Z,0.20
2023-01-11T02:51:05.675Z,0.30
2023-01-11T02:53:48.059Z,0.30
2023-01-11T02:56:21.138Z,0.32
2023-01-11T02:58:51.387Z,0.50
2023-01-11T03:01:19.642Z,0.40
2023-01-11T03:03:47.771Z,0.22
2023-01-11T03:06:21.070Z,0.50
2023-01-11T03:09:10.672Z,0.55
2023-01-11T03:11:55.806Z,0.50
2023-01-11T03:18:41.782Z,0.50
2023-01-11T03:21:28.519Z,0.40
2023-01-11T03:24:26.502Z,0.30
2023-01-11T03:27:17.727Z,0.30
2023-01-11T03:30:11.858Z,0.67
2023-01-11T03:32:48.517Z,0.40
2023-01-11T03:41:43.610Z,0.63
2023-01-11T03:44:16.958Z,0.40
2023-01-11T03:46:51.783Z,0.30
2023-01-11T03:49:25.658Z,0.40
2023-01-11T03:51:55.725Z,0.40
2023-01-11T03:54:26.450Z,0.45
2023-01-11T03:57:10.636Z,0.30
2023-01-11T03:59:39.413Z,0.47
2023-01-11T04:02:19.079Z,0.47
2023-01-11T04:04:46.617Z,0.57
2023-01-11T04:07:15.229Z,0.73
2023-01-11T04:09:42.782Z,0.60
2023-01-11T04:12:11.385Z,0.55
2023-01-11T04:14:41.793Z,0.77
2023-01-11T04:17:10.183Z,1.40
2023-01-11T04:20:01.897Z,1.45
2023-01-11T04:22:29.803Z,1.30
2023-01-11T04:24:56.443Z,1.08
2023-01-11T04:27:23.811Z,1.02
2023-01-11T04:29:50.541Z,0.60
2023-01-11T04:32:17.712Z,0.43
2023-01-11T04:34:45.216Z,0.70
2023-01-11T04:37:12.164Z,0.60
2023-01-11T04:39:39.062Z,0.80
2023-01-11T04:42:06.838Z,0.60
2023-01-11T04:44:34.218Z,0.73
2023-01-11T04:47:00.942Z,0.77
2023-01-11T04:49:28.284Z,0.50
2023-01-11T04:51:56.018Z,0.47
2023-01-11T04:54:24.817Z,0.65
2023-01-11T04:56:51.675Z,0.40
2023-01-11T04:59:18.418Z,0.70
2023-01-11T05:01:45.603Z,0.82
2023-01-11T05:04:13.593Z,0.63
2023-01-11T05:06:42.289Z,0.60
2023-01-11T05:09:15.963Z,0.70
2023-01-11T05:11:45.928Z,0.80
2023-01-11T05:14:13.570Z,0.98
2023-01-11T05:16:41.259Z,1.00
2023-01-11T05:19:11.822Z,0.80
2023-01-11T05:21:41.342Z,1.35
2023-01-11T05:24:12.979Z,0.90
2023-01-11T05:26:42.435Z,1.00
2023-01-11T05:29:16.833Z,1.08
2023-01-11T05:31:43.888Z,0.80
2023-01-11T05:34:12.999Z,0.82
2023-01-11T05:36:42.456Z,0.50
2023-01-11T05:39:10.681Z,0.70
2023-01-11T05:41:37.618Z,0.80
2023-01-11T05:44:04.831Z,0.80
2023-01-11T05:46:33.503Z,0.90
2023-01-11T05:49:01.975Z,1.03
2023-01-11T05:51:53.936Z,0.93
2023-01-11T05:54:23.009Z,0.98
2023-01-11T05:56:49.756Z,0.70
2023-01-11T05:59:16.573Z,1.27
2023-01-11T06:01:43.555Z,1.03
2023-01-11T06:04:11.310Z,0.90
2023-01-11T06:09:31.462Z,0.80
2023-01-11T06:11:58.231Z,0.63
2023-01-11T06:14:25.094Z,1.63
2023-01-11T06:22:59.977Z,2.00
2023-01-11T06:25:28.266Z,1.60
2023-01-11T06:27:59.679Z,1.20
2023-01-11T06:30:28.178Z,1.30
2023-01-11T06:32:55.034Z,1.60
2023-01-11T06:35:22.281Z,1.65
2023-01-11T06:37:50.888Z,1.60
2023-01-11T06:40:17.726Z,1.57
2023-01-11T06:42:46.278Z,1.58
2023-01-11T06:45:15.945Z,1.67
2023-01-11T06:47:42.780Z,1.52
2023-01-11T06:50:10.307Z,1.77
2023-01-11T06:52:37.938Z,1.70
2023-01-11T06:55:05.335Z,1.40
2023-01-11T06:57:32.057Z,1.52
2023-01-11T06:59:58.959Z,1.42
2023-01-11T07:02:25.735Z,1.55
2023-01-11T07:04:56.296Z,1.60
2023-01-11T07:07:23.134Z,1.35
2023-01-11T07:09:49.917Z,1.40
2023-01-11T07:12:16.627Z,1.55
2023-01-11T07:17:36.550Z,1.80
2023-01-11T07:20:04.669Z,1.52
2023-01-11T07:22:34.816Z,1.17
2023-01-11T07:25:03.861Z,1.20
2023-01-11T07:27:30.775Z,1.30
2023-01-11T07:29:57.713Z,2.13
2023-01-11T07:32:24.990Z,1.60
2023-01-11T07:34:51.685Z,1.50
2023-01-11T07:37:28.346Z,1.35
2023-01-11T07:39:56.178Z,2.08
2023-01-11T07:42:22.950Z,1.57
2023-01-11T07:44:50.409Z,2.50
2023-01-11T07:47:17.179Z,1.60
2023-01-11T07:52:30.536Z,1.60
2023-01-11T07:54:57.253Z,2.10
2023-01-11T07:57:25.369Z,2.00
2023-01-11T07:59:52.177Z,2.50
2023-01-11T08:02:43.710Z,2.85
2023-01-11T08:05:10.762Z,1.90
2023-01-11T08:07:37.501Z,1.93
2023-01-11T08:10:09.171Z,2.08
2023-01-11T08:12:51.664Z,2.10
2023-01-11T08:15:18.583Z,2.03
2023-01-11T08:17:45.374Z,1.92
2023-01-11T08:20:13.412Z,2.20
2023-01-11T08:22:40.286Z,1.75
2023-01-11T08:25:07.965Z,1.77
2023-01-11T08:27:35.411Z,2.20
2023-01-11T08:30:02.123Z,1.95
2023-01-11T08:32:30.031Z,2.00
2023-01-11T08:34:56.783Z,2.00
2023-01-11T08:37:25.055Z,2.20
2023-01-11T08:39:51.826Z,2.42
2023-01-11T08:42:20.407Z,2.38
2023-01-11T08:44:47.929Z,1.90
2023-01-11T08:47:15.396Z,2.00
2023-01-11T08:49:43.019Z,1.70
2023-01-11T08:52:13.841Z,1.90
2023-01-11T08:54:41.868Z,1.80
2023-01-11T08:57:09.072Z,1.97
2023-01-11T08:59:37.333Z,1.63
2023-01-11T09:02:05.953Z,1.95
2023-01-11T09:04:32.972Z,2.10
2023-01-11T09:07:00.361Z,1.90
2023-01-11T09:09:51.875Z,1.70
2023-01-11T09:12:22.298Z,1.50
2023-01-11T09:14:49.366Z,1.40
2023-01-11T09:17:16.953Z,1.60
2023-01-11T09:19:44.182Z,1.77
2023-01-11T09:22:11.908Z,1.10
2023-01-11T09:24:38.759Z,1.17
2023-01-11T09:27:05.639Z,1.40
2023-01-11T09:29:34.968Z,1.42
2023-01-11T09:32:03.386Z,1.35
2023-01-11T09:34:30.088Z,1.07
2023-01-11T09:36:57.938Z,1.10
2023-01-11T09:39:24.744Z,1.30
2023-01-11T09:42:22.889Z,1.98
2023-01-11T09:44:56.166Z,1.20
2023-01-11T09:47:29.299Z,1.73
2023-01-11T09:50:00.443Z,1.20
2023-01-11T09:52:35.895Z,1.17
2023-01-11T09:55:04.119Z,0.90
2023-01-11T09:57:58.019Z,0.80
2023-01-11T10:00:50.721Z,0.80
2023-01-11T10:03:51.896Z,0.65
2023-01-11T10:06:32.786Z,0.90
2023-01-11T10:18:29.666Z,0.90
2023-01-11T10:24:29.799Z,0.90
2023-01-11T10:27:04.941Z,0.55
2023-01-11T10:29:40.569Z,0.53
2023-01-11T10:32:33.848Z,0.22
2023-01-11T10:35:36.912Z,0.50
2023-01-11T10:38:10.863Z,0.47
2023-01-11T10:40:48.506Z,0.47
2023-01-11T10:43:19.912Z,0.20
2023-01-11T10:45:54.333Z,0.40
2023-01-11T10:48:40.881Z,0.28
2023-01-11T10:51:19.637Z,0.30
2023-01-11T10:53:59.012Z,0.30
2023-01-11T10:57:08.042Z,0.20
2023-01-11T11:00:01.759Z,0.50
2023-01-11T11:02:49.850Z,0.20
2023-01-11T11:05:44.748Z,0.10
2023-01-11T11:08:18.409Z,0.10
2023-01-11T11:11:05.593Z,0.20
2023-01-11T11:14:01.100Z,0.10
2023-01-11T11:16:44.945Z,0.20
2023-01-11T11:19:17.129Z,0.20
2023-01-11T11:21:44.914Z,0.28
2023-01-11T11:24:21.409Z,0.33
2023-01-11T11:26:55.894Z,0.20
2023-01-11T11:29:26.330Z,0.30
2023-01-11T11:31:53.423Z,0.60
2023-01-11T11:34:22.242Z,0.57
2023-01-11T11:36:53.030Z,0.30
2023-01-11T11:39:29.715Z,0.30
2023-01-11T11:45:14.619Z,0.60
2023-01-11T11:47:42.464Z,1.45
2023-01-11T11:50:43.265Z,0.30
2023-01-11T11:53:22.380Z,0.20
2023-01-11T11:55:53.001Z,0.45
2023-01-11T11:58:23.980Z,0.40
2023-01-11T12:01:36.901Z,0.10
2023-01-11T12:04:14.207Z,0.20
2023-01-11T12:06:42.928Z,0.40
2023-01-11T12:09:38.178Z,0.32
2023-01-11T12:12:20.792Z,0.20
2023-01-11T12:15:16.119Z,0.20
2023-01-11T12:17:43.959Z,0.40
2023-01-11T12:20:22.688Z,0.32
2023-01-11T12:23:21.609Z,0.20
2023-01-11T12:25:57.472Z,0.40
2023-01-11T12:28:39.568Z,0.45
2023-01-11T12:31:21.094Z,0.50
2023-01-11T12:34:39.357Z,0.40
2023-01-11T12:37:12.255Z,0.10
2023-01-11T12:39:52.188Z,0.30
2023-01-11T12:42:25.464Z,0.28
2023-01-11T12:45:03.549Z,0.50
2023-01-11T12:47:42.325Z,0.60
2023-01-11T12:50:25.585Z,0.32
2023-01-11T12:53:34.879Z,0.22
2023-01-11T12:56:28.048Z,0.20
2023-01-11T12:59:20.547Z,0.20
2023-01-11T13:05:37.549Z,0.20
2023-01-11T13:08:30.863Z,0.30
2023-01-11T13:14:42.888Z,0.40
2023-01-11T13:17:10.281Z,0.50
2023-01-11T13:19:43.915Z,0.40
2023-01-11T13:22:18.014Z,0.30
2023-01-11T13:24:50.888Z,0.30
2023-01-11T13:27:22.295Z,0.20
2023-01-11T13:29:53.898Z,0.68
2023-01-11T13:32:28.361Z,0.30
2023-01-11T13:35:20.046Z,0.20
2023-01-11T13:38:15.688Z,0.20
2023-01-11T13:44:06.430Z,0.40
2023-01-11T13:47:09.579Z,0.28
2023-01-11T13:49:51.015Z,0.40
2023-01-11T13:52:39.340Z,0.30
2023-01-11T13:55:25.105Z,0.30
2023-01-11T13:57:59.604Z,0.10
2023-01-11T14:00:38.225Z,0.13
2023-01-11T14:03:37.721Z,0.10
2023-01-11T14:06:35.211Z,0.00
2023-01-11T14:09:20.638Z,0.30
2023-01-11T14:12:05.666Z,0.25
2023-01-11T14:14:38.474Z,0.20
2023-01-11T14:17:05.151Z,0.20
2023-01-11T14:20:01.515Z,0.10
2023-01-11T14:22:37.463Z,0.20
2023-01-11T14:25:14.159Z,0.15
2023-01-11T14:28:08.613Z,0.20
2023-01-11T14:30:41.216Z,0.45
2023-01-11T14:33:26.586Z,0.40
2023-01-11T14:36:23.934Z,0.73
2023-01-11T14:39:19.667Z,0.40
2023-01-11T14:41:55.415Z,0.82
2023-01-11T14:44:59.612Z,0.40
2023-01-11T14:47:52.343Z,0.50
2023-01-11T14:50:43.521Z,0.40
2023-01-11T14:53:19.138Z,0.80
2023-01-11T14:55:46.387Z,0.70
2023-01-11T15:01:26.008Z,0.50
2023-01-11T15:03:56.141Z,0.87
2023-01-11T15:06:25.021Z,0.63
2023-01-11T15:08:55.849Z,0.63
2023-01-11T15:11:40.276Z,0.40
2023-01-11T15:14:36.815Z,0.50
2023-01-11T15:17:04.940Z,0.57
2023-01-11T15:19:35.591Z,0.52
2023-01-11T15:22:08.955Z,0.68
2023-01-11T15:24:41.820Z,0.55
2023-01-11T15:27:28.058Z,3.13
2023-01-11T15:29:58.034Z,3.20
2023-01-11T15:32:35.065Z,1.60
2023-01-11T15:35:23.243Z,1.80
2023-01-11T15:38:14.322Z,1.25
2023-01-11T15:40:43.309Z,0.70
2023-01-11T15:43:37.887Z,0.93
2023-01-11T15:46:33.832Z,0.80
2023-01-11T15:49:34.929Z,1.15
2023-01-11T15:52:05.244Z,1.20
2023-01-11T15:54:35.435Z,0.90
2023-01-11T15:57:39.027Z,0.90
2023-01-11T16:00:31.980Z,1.58
2023-01-11T16:03:18.768Z,1.30
2023-01-11T16:06:27.107Z,0.68
2023-01-11T16:09:15.405Z,0.57
2023-01-11T16:12:15.799Z,0.60
2023-01-11T16:15:10.623Z,0.43
2023-01-11T16:17:41.393Z,0.32
2023-01-11T16:20:20.187Z,0.28
2023-01-11T16:22:53.611Z,0.45
2023-01-11T16:25:23.460Z,0.40
2023-01-11T16:27:55.915Z,0.38
2023-01-11T16:30:23.130Z,0.40
2023-01-11T16:32:50.218Z,0.50
2023-01-11T16:35:26.050Z,0.30
2023-01-11T16:38:25.931Z,0.50
2023-01-11T16:41:18.747Z,0.40
2023-01-11T16:46:46.641Z,0.35
2023-01-11T16:49:18.381Z,0.40
2023-01-11T16:52:35.056Z,0.30
2023-01-11T16:55:11.029Z,0.28
2023-01-11T16:57:43.948Z,0.50
2023-01-11T17:00:25.528Z,0.40
2023-01-11T17:03:16.516Z,0.38
2023-01-11T17:06:14.956Z,0.30
2023-01-11T17:08:47.912Z,0.30
2023-01-11T17:11:41.732Z,0.30
2023-01-11T17:14:28.047Z,0.32
2023-01-11T17:17:00.192Z,0.28
2023-01-11T17:19:31.276Z,0.27
2023-01-11T17:22:06.469Z,0.30
2023-01-11T17:24:48.102Z,0.30
2023-01-11T17:27:22.576Z,0.47
2023-01-11T17:29:53.890Z,0.30
2023-01-11T17:32:45.597Z,0.40
2023-01-11T17:35:19.055Z,0.47
2023-01-11T17:37:48.623Z,0.52
2023-01-11T17:40:36.858Z,0.50
2023-01-11T17:43:22.603Z,0.43
2023-01-11T17:45:50.478Z,0.60
2023-01-11T17:48:17.441Z,0.60
2023-01-11T17:50:53.571Z,0.90
2023-01-11T17:53:32.467Z,0.80
2023-01-11T17:56:03.864Z,1.00
2023-01-11T17:58:32.854Z,1.20
2023-01-11T18:01:08.979Z,1.15
2023-01-11T18:03:54.506Z,1.52
2023-01-11T18:06:39.936Z,1.25
2023-01-11T18:09:19.591Z,1.70
2023-01-11T18:11:52.594Z,2.50
2023-01-11T18:14:30.348Z,2.67
2023-01-11T18:17:01.276Z,3.00
2023-01-11T18:19:35.608Z,3.92
2023-01-11T18:22:04.946Z,3.65
2023-01-11T18:24:34.338Z,3.03
2023-01-11T18:27:18.080Z,3.20
2023-01-11T18:30:32.977Z,3.70
2023-01-11T18:33:11.901Z,3.10
2023-01-11T18:35:44.356Z,2.97
2023-01-11T18:38:23.317Z,3.17
2023-01-11T18:40:53.475Z,3.10
2023-01-11T18:43:29.426Z,3.03
2023-01-11T18:45:56.804Z,3.47
2023-01-11T18:48:25.504Z,3.28
2023-01-11T18:53:44.712Z,2.80
2023-01-11T18:56:11.675Z,2.72
2023-01-11T18:58:38.988Z,2.60
2023-01-11T19:01:14.088Z,2.05
2023-01-11T19:03:43.671Z,2.00
2023-01-11T19:06:15.704Z,1.30
2023-01-11T19:08:43.382Z,1.75
2023-01-11T19:11:11.872Z,1.35
2023-01-11T19:13:38.987Z,1.30
2023-01-11T19:16:08.560Z,1.40
2023-01-11T19:18:35.835Z,1.40
2023-01-11T19:21:04.834Z,1.27
2023-01-11T19:23:33.055Z,1.20
2023-01-11T19:26:02.806Z,1.20
2023-01-11T19:28:31.644Z,1.20
2023-01-11T19:30:59.003Z,1.20
2023-01-11T19:33:26.326Z,1.15
2023-01-11T19:35:53.688Z,1.30
2023-01-11T19:38:20.754Z,1.80
2023-01-11T19:40:50.444Z,1.80
2023-01-11T19:43:17.933Z,1.85
2023-01-11T19:45:45.359Z,4.40
2023-01-11T19:48:12.255Z,4.28
2023-01-11T19:50:39.237Z,4.93
2023-01-11T19:53:06.225Z,4.53
2023-01-11T19:55:33.040Z,4.57
2023-01-11T19:58:00.503Z,3.97
2023-01-11T20:00:29.743Z,4.07
2023-01-11T20:02:58.449Z,4.95
2023-01-11T20:05:25.428Z,4.00
2023-01-11T20:07:52.357Z,4.30
2023-01-11T20:10:19.532Z,4.65
2023-01-11T20:12:47.860Z,4.03
2023-01-11T20:15:15.550Z,3.97
2023-01-11T20:17:42.810Z,3.90
2023-01-11T20:20:10.855Z,3.90
2023-01-11T20:22:37.807Z,3.80
2023-01-11T20:25:05.676Z,3.30
2023-01-11T20:27:32.944Z,3.45
2023-01-11T20:30:01.694Z,3.90
2023-01-11T20:32:41.057Z,4.40
2023-01-11T20:35:11.939Z,4.40
2023-01-11T20:37:39.370Z,3.72
2023-01-11T20:40:07.387Z,3.90
2023-01-11T20:42:35.606Z,3.63
2023-01-11T20:45:04.523Z,4.00
2023-01-11T20:47:32.564Z,3.65
2023-01-11T20:49:59.480Z,4.57
2023-01-11T20:52:26.655Z,4.68
2023-01-11T20:54:54.076Z,4.17
2023-01-11T20:57:22.009Z,4.55
2023-01-11T20:59:49.449Z,4.30
2023-01-11T21:02:16.185Z,3.47
2023-01-11T21:04:46.891Z,3.90
2023-01-11T21:07:17.447Z,3.60
2023-01-11T21:09:44.356Z,3.95
2023-01-11T21:12:11.400Z,5.00
2023-01-11T21:14:38.110Z,3.88
2023-01-11T21:17:05.924Z,3.40
2023-01-11T21:19:36.340Z,0.20
2023-01-11T21:22:03.202Z,0.10
2023-01-11T21:24:30.429Z,0.10
2023-01-11T21:26:57.594Z,0.05
2023-01-11T21:29:25.381Z,0.10
2023-01-11T21:31:52.376Z,0.10
2023-01-11T21:34:20.897Z,0.10
2023-01-11T21:36:48.513Z,0.20
2023-01-11T21:39:17.015Z,0.10
2023-01-11T21:41:47.966Z,0.50
2023-01-11T21:44:16.445Z,0.30
2023-01-11T21:46:45.003Z,0.20
2023-01-11T21:49:13.911Z,0.20
2023-01-11T21:51:42.009Z,0.40
2023-01-11T21:54:12.859Z,0.30
2023-01-11T21:56:40.308Z,0.50
2023-01-11T21:59:09.012Z,0.30
2023-01-11T22:01:36.063Z,0.32
2023-01-11T22:04:07.623Z,0.20
2023-01-11T22:06:40.094Z,0.32
2023-01-11T22:09:09.616Z,0.50
2023-01-11T22:11:37.867Z,0.40
2023-01-11T22:14:05.726Z,0.30
2023-01-11T22:16:33.528Z,0.40
2023-01-11T22:19:01.681Z,0.20
2023-01-11T22:21:30.898Z,0.47
2023-01-11T22:23:58.890Z,0.20
2023-01-11T22:26:54.981Z,0.20
2023-01-11T22:29:25.386Z,0.22
2023-01-11T22:31:53.563Z,0.40
2023-01-11T22:34:22.364Z,0.50
2023-01-11T22:37:15.050Z,0.40
2023-01-11T22:39:42.787Z,0.32
2023-01-11T22:42:09.559Z,0.40
2023-01-11T22:45:03.095Z,0.35
2023-01-11T22:47:54.983Z,0.20
2023-01-11T22:50:23.151Z,0.40
2023-01-11T22:52:49.932Z,0.20
2023-01-11T22:55:17.327Z,0.28
2023-01-11T22:57:45.954Z,0.43
2023-01-11T23:00:13.356Z,0.20
2023-01-11T23:02:40.208Z,0.20
2023-01-11T23:05:07.958Z,0.30
2023-01-11T23:07:38.373Z,0.20
2023-01-11T23:10:05.534Z,0.30
2023-01-11T23:12:34.049Z,0.30
2023-01-11T23:15:00.824Z,0.20
2023-01-11T23:17:27.649Z,0.30
2023-01-11T23:19:54.660Z,0.40
2023-01-11T23:22:21.459Z,0.32
2023-01-11T23:24:48.294Z,0.20
2023-01-11T23:27:15.368Z,0.32
2023-01-11T23:29:42.959Z,0.25
2023-01-11T23:32:09.852Z,0.20
2023-01-11T23:34:37.909Z,0.50
2023-01-11T23:37:08.330Z,0.50
2023-01-11T23:39:38.961Z,0.17
2023-01-11T23:42:06.371Z,0.20
2023-01-11T23:44:33.535Z,0.25
2023-01-11T23:47:00.405Z,0.20
2023-01-11T23:49:29.562Z,0.20
2023-01-11T23:51:56.907Z,0.30
2023-01-11T23:54:30.913Z,0.40
2023-01-11T23:57:00.143Z,0.20
2023-01-11T23:59:27.120Z,0.32
